Time;durP1;ratioP1;P1;durP2;ratioP2;P2;SDS_P1;SDS_P2;PMS_P1;PMS_P2;Temp;Humidity;BMP_temperature;BMP_pressure;BME280_temperature;BME280_humidity;BME280_pressure;Samples;Min_cycle;Max_cycle;Signal;HPM_P1;HPM_P2
2021/12/12 00:01:08;;;;;;;57.20;16.13;;;5.00;99.90;;;;;;5032069;28;20037;-77
2021/12/12 00:03:41;;;;;;;55.95;16.58;;;5.10;99.90;;;;;;5030777;28;20064;-77
2021/12/12 00:06:16;;;;;;;43.42;15.70;;;5.10;99.90;;;;;;5031454;28;20061;-77
2021/12/12 00:08:44;;;;;;;43.38;15.90;;;5.10;99.90;;;;;;5031636;28;20037;-77
2021/12/12 00:11:14;;;;;;;47.72;15.45;;;5.10;99.90;;;;;;5031759;28;20025;-77
2021/12/12 00:13:47;;;;;;;37.63;14.13;;;5.20;99.90;;;;;;5031981;28;20087;-77
2021/12/12 00:16:13;;;;;;;36.28;12.63;;;5.10;99.90;;;;;;5031990;28;20029;-77
2021/12/12 00:18:39;;;;;;;35.53;14.18;;;5.20;99.90;;;;;;5030469;28;20120;-77
2021/12/12 00:21:07;;;;;;;41.17;11.95;;;5.20;99.90;;;;;;5045876;28;20033;-77
2021/12/12 00:23:33;;;;;;;41.72;11.85;;;5.20;99.90;;;;;;5050279;28;20025;-77
2021/12/12 00:25:59;;;;;;;29.00;11.50;;;5.30;99.90;;;;;;5051525;28;20063;-77
2021/12/12 00:28:28;;;;;;;35.60;11.90;;;5.30;99.90;;;;;;5051541;28;20029;-77
2021/12/12 00:30:58;;;;;;;34.38;11.52;;;5.30;99.90;;;;;;5051756;28;20067;-77
2021/12/12 00:33:24;;;;;;;34.40;10.55;;;5.30;99.90;;;;;;5051953;28;20099;-77
2021/12/12 00:35:50;;;;;;;30.42;10.52;;;5.30;99.90;;;;;;5055408;28;20025;-77
2021/12/12 00:38:26;;;;;;;34.17;10.48;;;5.40;99.90;;;;;;5055485;28;20055;-77
2021/12/12 00:40:55;;;;;;;37.85;10.73;;;5.30;99.90;;;;;;5055485;28;20080;-77
2021/12/12 00:43:28;;;;;;;41.88;12.05;;;5.30;99.90;;;;;;5055548;28;20029;-77
2021/12/12 00:45:58;;;;;;;28.63;9.90;;;5.40;99.90;;;;;;5055456;28;20025;-77
2021/12/12 00:48:27;;;;;;;40.30;9.85;;;5.30;99.90;;;;;;5055237;28;20028;-77
2021/12/12 00:50:53;;;;;;;28.70;10.88;;;5.40;99.90;;;;;;5035457;28;20643;-77
2021/12/12 00:53:21;;;;;;;25.67;9.27;;;5.40;99.90;;;;;;5034964;28;20033;-76
2021/12/12 00:55:49;;;;;;;28.88;9.60;;;5.40;99.90;;;;;;5034917;28;20044;-76
2021/12/12 00:58:17;;;;;;;29.63;9.63;;;5.50;99.90;;;;;;5035286;28;20029;-76
2021/12/12 01:01:12;;;;;;;24.90;8.95;;;5.40;99.90;;;;;;5040904;28;20124;-77
2021/12/12 01:04:01;;;;;;;34.38;12.02;;;5.50;99.90;;;;;;5055114;28;20061;-77
2021/12/12 01:06:27;;;;;;;36.75;9.75;;;5.40;99.90;;;;;;5055016;28;20031;-77
2021/12/12 01:08:57;;;;;;;39.40;9.80;;;5.40;99.90;;;;;;5054865;28;20445;-77
2021/12/12 01:11:33;;;;;;;29.35;9.32;;;5.40;99.90;;;;;;5054973;28;20036;-77
2021/12/12 01:13:59;;;;;;;28.27;8.88;;;5.40;99.90;;;;;;5054909;28;20017;-77
2021/12/12 01:16:34;;;;;;;36.00;10.10;;;5.40;99.90;;;;;;5054978;28;20037;-77
2021/12/12 01:19:09;;;;;;;32.53;9.32;;;5.40;99.90;;;;;;5053395;28;20021;-77
2021/12/12 01:21:39;;;;;;;31.73;10.45;;;5.50;99.90;;;;;;5049889;28;20071;-77
2021/12/12 01:24:13;;;;;;;37.40;11.32;;;5.50;99.90;;;;;;5034679;28;20095;-77
2021/12/12 01:26:40;;;;;;;30.30;10.82;;;5.40;99.90;;;;;;5034896;28;20056;-77
2021/12/12 01:29:06;;;;;;;31.35;10.38;;;5.40;99.90;;;;;;5034749;28;20657;-77
2021/12/12 01:31:36;;;;;;;30.73;10.27;;;5.40;99.90;;;;;;5034899;28;20029;-77
2021/12/12 01:34:12;;;;;;;31.20;10.40;;;5.50;99.90;;;;;;5034501;28;20129;-77
2021/12/12 01:39:32;;;;;;;33.75;10.23;;;5.50;99.90;;;;;;5034683;28;20399;-77
2021/12/12 01:42:08;;;;;;;29.55;10.57;;;5.50;99.90;;;;;;5034644;28;20025;-76
2021/12/12 01:44:52;;;;;;;42.85;11.35;;;5.40;99.90;;;;;;5034074;28;20041;-77
2021/12/12 01:47:28;;;;;;;36.35;10.50;;;5.50;99.90;;;;;;5032753;28;20037;-76
2021/12/12 01:49:58;;;;;;;32.40;10.10;;;5.40;99.90;;;;;;5052422;28;20503;-76
2021/12/12 01:52:27;;;;;;;41.78;12.15;;;5.50;99.90;;;;;;5054245;28;20033;-76
2021/12/12 01:54:59;;;;;;;39.55;11.30;;;5.50;99.90;;;;;;5053863;28;20021;-76
2021/12/12 01:57:28;;;;;;;;;;;5.50;99.90;;;;;;5054491;28;20039;-76
2021/12/12 01:59:56;;;;;;;39.53;11.40;;;5.50;99.90;;;;;;5054019;28;19985;-76
2021/12/12 02:02:28;;;;;;;33.03;11.05;;;5.50;99.90;;;;;;5053909;28;20645;-76
2021/12/12 02:04:59;;;;;;;34.40;11.18;;;5.40;99.90;;;;;;5053800;28;20029;-76
2021/12/12 02:07:29;;;;;;;37.90;11.35;;;5.50;99.90;;;;;;5053857;28;20113;-76
2021/12/12 02:09:59;;;;;;;32.97;11.25;;;5.50;99.90;;;;;;5052169;28;20048;-76
2021/12/12 02:12:25;;;;;;;32.03;11.10;;;5.60;99.90;;;;;;5052271;28;20529;-76
2021/12/12 02:14:52;;;;;;;33.88;10.50;;;5.50;99.90;;;;;;5052330;28;20057;-76
2021/12/12 02:17:32;;;;;;;40.97;11.27;;;5.50;99.90;;;;;;5053679;28;20025;-76
2021/12/12 02:20:21;;;;;;;35.05;10.88;;;5.60;99.90;;;;;;5047247;28;20024;-76
2021/12/12 02:23:18;;;;;;;36.20;11.18;;;5.50;99.90;;;;;;5033550;28;20108;-76
2021/12/12 02:36:44;;;;;;;32.97;10.70;;;5.60;99.90;;;;;;5033730;28;20040;-76
2021/12/12 02:39:18;;;;;;;34.47;11.68;;;5.60;99.90;;;;;;5033216;28;20563;-76
2021/12/12 02:41:50;;;;;;;42.95;12.98;;;5.60;99.90;;;;;;5033410;28;20032;-77
2021/12/12 02:44:20;;;;;;;44.22;13.32;;;5.60;99.90;;;;;;5033189;28;20029;-76
2021/12/12 02:46:46;;;;;;;46.72;12.35;;;5.60;99.90;;;;;;5033197;28;20072;-77
2021/12/12 02:52:14;;;;;;;46.42;12.57;;;5.60;99.90;;;;;;5030794;28;20053;-77
2021/12/12 02:54:41;;;;;;;47.38;13.00;;;5.60;99.90;;;;;;5030397;28;20036;-76
2021/12/12 02:57:08;;;;;;;49.30;13.32;;;5.50;99.90;;;;;;5029869;28;20036;-77
2021/12/12 02:59:35;;;;;;;39.47;13.75;;;5.60;99.90;;;;;;5030623;28;20033;-77
2021/12/12 03:02:06;;;;;;;51.78;14.65;;;5.50;99.90;;;;;;5013919;28;20047;-77
2021/12/12 03:04:33;;;;;;;40.30;15.27;;;5.60;99.90;;;;;;5030419;28;20029;-77
2021/12/12 03:07:00;;;;;;;48.47;15.32;;;5.60;99.90;;;;;;5030304;28;20113;-77
2021/12/12 03:09:36;;;;;;;47.50;15.52;;;5.60;99.90;;;;;;5030107;28;20037;-77
2021/12/12 03:12:19;;;;;;;46.70;15.60;;;5.60;99.90;;;;;;5030418;28;20041;-77
2021/12/12 03:14:46;;;;;;;;;;;5.70;99.90;;;;;;5030576;28;20048;-77
2021/12/12 03:17:19;;;;;;;45.25;15.30;;;5.60;99.90;;;;;;5030434;28;19905;-77
2021/12/12 03:19:58;;;;;;;48.60;16.30;;;5.70;99.90;;;;;;5030290;28;20329;-77
2021/12/12 03:22:25;;;;;;;40.53;16.38;;;5.70;99.90;;;;;;5030308;28;20038;-77
2021/12/12 03:24:51;;;;;;;54.60;19.77;;;5.60;99.90;;;;;;5030148;28;20052;-77
2021/12/12 03:27:20;;;;;;;42.10;16.63;;;5.70;99.90;;;;;;5030934;28;20471;-77
2021/12/12 03:29:47;;;;;;;52.72;19.45;;;5.80;99.90;;;;;;5032642;28;20026;-77
2021/12/12 03:32:17;;;;;;;52.05;18.65;;;5.70;99.90;;;;;;5032581;28;20026;-77
2021/12/12 03:34:47;;;;;;;55.97;20.35;;;5.70;99.90;;;;;;5032625;28;20021;-77
2021/12/12 03:37:18;;;;;;;62.17;19.38;;;5.70;99.90;;;;;;5032578;28;20033;-77
2021/12/12 03:39:46;;;;;;;50.22;19.92;;;5.70;99.90;;;;;;5032430;28;20037;-77
2021/12/12 03:42:16;;;;;;;46.10;17.05;;;5.70;99.90;;;;;;5031350;28;20459;-78
2021/12/12 03:44:44;;;;;;;51.58;20.58;;;5.70;99.90;;;;;;5032325;28;20112;-77
2021/12/12 03:47:19;;;;;;;41.97;17.30;;;5.80;99.90;;;;;;5032305;28;20029;-77
2021/12/12 03:49:44;;;;;;;41.90;19.23;;;5.80;99.90;;;;;;5042493;28;20029;-78
2021/12/12 03:52:12;;;;;;;40.20;17.45;;;5.70;99.90;;;;;;5052626;28;20037;-78
2021/12/12 03:54:40;;;;;;;38.55;19.25;;;5.80;99.90;;;;;;5052513;28;20021;-78
2021/12/12 03:57:07;;;;;;;46.22;18.67;;;5.80;99.90;;;;;;5052485;28;20471;-77
2021/12/12 03:59:33;;;;;;;44.40;19.30;;;5.80;99.90;;;;;;5050919;28;20426;-77
2021/12/12 04:01:59;;;;;;;36.40;17.63;;;5.80;99.90;;;;;;5050983;28;20021;-77
2021/12/12 04:04:31;;;;;;;40.78;19.65;;;5.80;99.90;;;;;;5052235;28;20100;-78
2021/12/12 04:06:59;;;;;;;46.83;19.15;;;5.80;99.90;;;;;;5052308;28;20025;-77
2021/12/12 04:09:26;;;;;;;44.33;20.60;;;5.80;99.90;;;;;;5052047;28;20056;-77
2021/12/12 04:11:55;;;;;;;51.78;21.73;;;5.80;99.90;;;;;;5052091;28;20017;-77
2021/12/12 04:14:22;;;;;;;41.63;20.00;;;5.90;99.90;;;;;;5052131;28;20057;-77
2021/12/12 04:16:58;;;;;;;39.65;19.77;;;5.90;99.90;;;;;;5052500;28;20118;-78
2021/12/12 04:19:26;;;;;;;43.65;20.20;;;5.90;99.90;;;;;;5050398;28;20159;-77
2021/12/12 04:21:52;;;;;;;41.83;20.70;;;5.90;99.90;;;;;;5032124;28;20022;-77
2021/12/12 04:24:26;;;;;;;45.80;21.48;;;5.90;99.90;;;;;;5031758;28;20021;-77
2021/12/12 04:26:53;;;;;;;58.90;20.83;;;5.90;99.90;;;;;;5030511;28;20072;-77
2021/12/12 04:29:25;;;;;;;42.65;19.67;;;5.90;99.90;;;;;;5030608;28;20045;-77
2021/12/12 04:31:53;;;;;;;;;;;5.90;99.90;;;;;;5031044;28;20120;-77
2021/12/12 04:34:22;;;;;;;39.13;19.13;;;5.90;99.90;;;;;;5031489;28;20039;-77
2021/12/12 04:36:51;;;;;;;41.58;18.98;;;5.90;99.90;;;;;;5030353;28;20025;-77
2021/12/12 04:39:25;;;;;;;47.35;21.77;;;6.00;99.90;;;;;;5031637;28;20045;-77
2021/12/12 04:41:53;;;;;;;49.85;20.58;;;6.00;99.90;;;;;;5031353;28;20025;-77
2021/12/12 04:44:22;;;;;;;38.97;19.13;;;6.00;99.90;;;;;;5030564;28;20084;-77
2021/12/12 04:50:10;;;;;;;41.42;20.17;;;6.00;99.90;;;;;;5031448;28;20036;-77
2021/12/12 04:52:44;;;;;;;38.92;18.77;;;6.10;99.90;;;;;;5031661;28;20040;-77
2021/12/12 04:55:35;;;;;;;42.88;19.50;;;6.10;99.90;;;;;;5030300;28;20122;-77
2021/12/12 04:58:15;;;;;;;39.47;20.13;;;6.10;99.90;;;;;;4993142;28;20050;-77
2021/12/12 05:00:48;;;;;;;35.92;20.13;;;6.10;99.90;;;;;;5009801;28;20088;-77
2021/12/12 05:03:33;;;;;;;40.80;20.15;;;6.10;99.90;;;;;;5009384;28;20415;-77
2021/12/12 05:06:08;;;;;;;41.20;20.52;;;6.10;99.90;;;;;;5009350;28;20041;-77
2021/12/12 05:08:41;;;;;;;45.92;20.65;;;6.20;99.90;;;;;;5025671;28;20050;-77
2021/12/12 05:11:35;;;;;;;36.05;18.83;;;6.20;99.90;;;;;;5009814;28;20456;-78
2021/12/12 05:14:08;;;;;;;38.90;19.50;;;6.20;99.90;;;;;;5009739;28;20097;-77
2021/12/12 05:16:40;;;;;;;40.17;19.83;;;6.20;99.90;;;;;;5009469;28;20057;-77
2021/12/12 05:19:13;;;;;;;32.90;18.80;;;6.10;99.90;;;;;;5009265;28;20042;-77
2021/12/12 05:21:45;;;;;;;40.35;21.02;;;6.20;99.90;;;;;;5013029;28;20026;-77
2021/12/12 05:24:13;;;;;;;35.97;18.83;;;6.20;99.90;;;;;;5012690;28;20395;-77
2021/12/12 05:26:44;;;;;;;33.58;17.75;;;6.30;99.90;;;;;;5012590;28;20113;-77
2021/12/12 05:29:27;;;;;;;40.22;21.05;;;6.30;99.90;;;;;;5012710;28;20041;-77
2021/12/12 05:31:55;;;;;;;45.72;20.83;;;6.30;99.90;;;;;;5012670;28;20025;-77
2021/12/12 05:34:26;;;;;;;49.13;21.08;;;6.30;99.90;;;;;;5035167;28;20065;-77
2021/12/12 05:36:53;;;;;;;53.47;24.77;;;6.30;99.90;;;;;;5034855;28;20022;-77
2021/12/12 05:39:20;;;;;;;46.88;23.33;;;6.30;99.90;;;;;;5034626;28;20029;-77
2021/12/12 05:41:47;;;;;;;47.05;21.77;;;6.30;99.90;;;;;;5034922;28;20499;-77
2021/12/12 05:44:14;;;;;;;48.65;21.92;;;6.30;99.90;;;;;;5034651;28;20033;-77
2021/12/12 05:46:40;;;;;;;49.88;20.92;;;6.40;99.90;;;;;;5034591;28;20108;-77
2021/12/12 05:49:06;;;;;;;40.15;21.02;;;6.40;99.90;;;;;;5038711;28;20096;-77
2021/12/12 05:51:33;;;;;;;46.67;22.05;;;6.40;99.90;;;;;;5054296;28;20138;-77
2021/12/12 05:53:59;;;;;;;54.70;23.65;;;6.40;99.90;;;;;;5054136;28;20021;-77
2021/12/12 05:56:29;;;;;;;52.35;23.40;;;6.40;99.90;;;;;;5054196;28;20029;-77
2021/12/12 05:58:56;;;;;;;46.78;22.17;;;6.40;99.90;;;;;;5054124;28;20388;-77
2021/12/12 06:01:23;;;;;;;42.08;21.70;;;6.40;99.90;;;;;;5054177;28;20060;-77
2021/12/12 06:03:51;;;;;;;43.85;22.05;;;6.50;99.90;;;;;;5054368;28;20108;-77
2021/12/12 06:06:39;;;;;;;53.00;23.13;;;6.50;99.90;;;;;;5053005;28;20141;-77
2021/12/12 06:09:06;;;;;;;55.72;24.02;;;6.50;99.90;;;;;;5052565;28;20428;-78
2021/12/12 06:11:35;;;;;;;52.60;22.45;;;6.50;99.90;;;;;;5052919;28;20456;-78
2021/12/12 06:14:02;;;;;;;58.80;23.77;;;6.50;99.90;;;;;;5053977;28;20040;-78
2021/12/12 06:16:31;;;;;;;68.03;24.80;;;6.50;99.90;;;;;;5052811;28;20013;-78
2021/12/12 06:19:08;;;;;;;54.30;24.52;;;6.50;99.90;;;;;;5053704;28;20095;-78
2021/12/12 06:21:35;;;;;;;68.10;27.40;;;6.60;99.90;;;;;;5052316;28;20079;-78
2021/12/12 06:24:01;;;;;;;54.92;26.15;;;6.60;99.90;;;;;;5053519;28;20025;-77
2021/12/12 06:26:27;;;;;;;60.15;26.15;;;6.60;99.90;;;;;;5053432;28;20029;-77
2021/12/12 06:28:53;;;;;;;65.95;26.85;;;6.60;99.90;;;;;;5052067;28;20424;-77
2021/12/12 06:31:20;;;;;;;66.43;27.10;;;6.60;99.90;;;;;;5053096;28;20410;-77
2021/12/12 06:33:46;;;;;;;71.53;28.42;;;6.60;99.90;;;;;;5053029;28;20107;-77
2021/12/12 06:36:15;;;;;;;59.47;25.02;;;6.70;99.90;;;;;;5053124;28;20432;-77
2021/12/12 06:38:44;;;;;;;60.60;26.92;;;6.80;99.90;;;;;;5053123;28;20075;-77
2021/12/12 06:41:11;;;;;;;66.60;26.80;;;6.70;99.90;;;;;;5053468;28;20022;-77
2021/12/12 06:43:37;;;;;;;68.88;26.50;;;6.70;99.90;;;;;;5053397;28;20025;-77
2021/12/12 06:46:05;;;;;;;76.53;28.88;;;6.80;99.90;;;;;;5053629;28;20132;-77
2021/12/12 06:48:31;;;;;;;74.03;28.08;;;6.80;99.90;;;;;;5053015;28;20047;-77
2021/12/12 06:50:58;;;;;;;73.95;29.90;;;6.80;99.90;;;;;;5052990;28;20052;-78
2021/12/12 06:53:27;;;;;;;102.90;34.03;;;6.80;99.90;;;;;;5053688;28;20083;-78
2021/12/12 06:55:54;;;;;;;82.07;31.40;;;6.80;99.90;;;;;;5052077;28;20025;-78
2021/12/12 06:58:20;;;;;;;99.07;33.38;;;6.80;99.90;;;;;;5053064;28;20033;-78
2021/12/12 07:00:50;;;;;;;74.60;29.65;;;6.90;99.90;;;;;;5053195;28;20029;-77
2021/12/12 07:03:17;;;;;;;104.45;34.03;;;6.90;99.90;;;;;;5053055;28;20096;-78
2021/12/12 07:05:43;;;;;;;105.32;34.97;;;6.90;99.90;;;;;;5052913;28;20086;-77
2021/12/12 07:08:10;;;;;;;104.43;36.40;;;7.00;99.90;;;;;;5053185;28;20423;-77
2021/12/12 07:10:36;;;;;;;86.90;32.38;;;6.90;99.90;;;;;;5053098;28;20435;-77
2021/12/12 07:13:03;;;;;;;122.97;38.25;;;7.00;99.90;;;;;;5052977;28;20025;-77
2021/12/12 07:15:32;;;;;;;113.15;37.00;;;7.00;99.90;;;;;;5052993;28;20035;-78
2021/12/12 07:18:04;;;;;;;115.88;36.05;;;7.00;99.90;;;;;;5052898;28;20107;-77
2021/12/12 07:20:30;;;;;;;148.15;39.45;;;7.00;99.90;;;;;;5051696;28;20025;-77
2021/12/12 07:22:56;;;;;;;124.45;37.13;;;7.00;99.90;;;;;;5051642;28;20033;-78
2021/12/12 07:25:22;;;;;;;149.00;39.17;;;7.00;99.90;;;;;;5051435;28;20035;-77
2021/12/12 07:27:51;;;;;;;127.38;38.53;;;7.00;99.90;;;;;;5053019;28;20080;-78
2021/12/12 07:30:17;;;;;;;133.82;38.50;;;7.10;99.90;;;;;;5053065;28;20021;-78
2021/12/12 07:32:44;;;;;;;111.00;36.88;;;7.10;99.90;;;;;;5052889;28;20519;-78
2021/12/12 07:35:12;;;;;;;130.25;38.10;;;7.10;99.90;;;;;;5052886;28;20025;-77
2021/12/12 07:37:38;;;;;;;161.95;40.92;;;7.20;99.90;;;;;;5051353;28;20025;-77
2021/12/12 07:40:07;;;;;;;134.00;40.05;;;7.10;99.90;;;;;;5051025;28;20066;-77
2021/12/12 07:42:34;;;;;;;131.48;40.20;;;7.20;99.90;;;;;;5051729;28;20040;-77
2021/12/12 07:45:01;;;;;;;164.68;42.78;;;7.30;99.90;;;;;;5052883;28;20032;-78
2021/12/12 07:47:28;;;;;;;166.75;43.42;;;7.30;99.90;;;;;;5052458;28;20106;-77
2021/12/12 07:49:55;;;;;;;146.27;43.03;;;7.30;99.90;;;;;;5040750;28;20701;-77
2021/12/12 07:52:26;;;;;;;133.43;41.42;;;7.30;99.90;;;;;;5032425;28;20033;-78
2021/12/12 07:54:53;;;;;;;202.88;45.60;;;7.40;99.90;;;;;;5032700;28;20013;-78
2021/12/12 07:57:21;;;;;;;155.18;41.35;;;7.40;99.90;;;;;;5032516;28;20399;-77
2021/12/12 07:59:48;;;;;;;146.07;42.13;;;7.50;99.90;;;;;;5030966;28;20028;-77
2021/12/12 08:02:15;;;;;;;184.32;46.17;;;7.50;99.90;;;;;;5032049;28;20489;-77
2021/12/12 08:04:42;;;;;;;189.10;48.00;;;7.50;99.90;;;;;;5031946;28;20025;-77
2021/12/12 08:07:11;;;;;;;222.40;48.78;;;7.60;99.90;;;;;;5032097;28;20029;-77
2021/12/12 08:09:41;;;;;;;200.70;46.25;;;7.60;99.90;;;;;;5032374;28;20017;-78
2021/12/12 08:12:14;;;;;;;203.45;46.38;;;7.60;99.90;;;;;;5032430;28;20017;-78
2021/12/12 08:14:40;;;;;;;209.70;47.53;;;7.60;99.90;;;;;;5032090;28;20017;-77
2021/12/12 08:17:06;;;;;;;190.98;47.05;;;7.60;99.90;;;;;;5032782;28;20032;-78
2021/12/12 08:19:32;;;;;;;185.77;44.15;;;7.70;99.90;;;;;;5035170;28;20021;-77
2021/12/12 08:22:05;;;;;;;220.55;48.35;;;7.70;99.90;;;;;;5052264;28;20113;-78
2021/12/12 08:24:33;;;;;;;200.43;47.60;;;7.70;99.90;;;;;;5052340;28;20033;-78
2021/12/12 08:27:00;;;;;;;228.90;50.17;;;7.70;99.90;;;;;;5052303;28;20017;-78
2021/12/12 08:29:26;;;;;;;213.60;49.70;;;7.70;99.90;;;;;;5051012;28;20860;-78
2021/12/12 08:31:52;;;;;;;226.77;50.17;;;7.70;99.90;;;;;;5052329;28;20036;-78
2021/12/12 08:34:18;;;;;;;256.42;52.70;;;7.70;99.90;;;;;;5052016;28;20117;-78
2021/12/12 08:36:48;;;;;;;236.20;50.08;;;7.80;99.90;;;;;;5050520;28;20033;-77
2021/12/12 08:39:14;;;;;;;201.23;47.00;;;7.80;99.90;;;;;;5052065;28;20124;-78
2021/12/12 08:41:42;;;;;;;193.82;46.05;;;7.80;99.90;;;;;;5052172;28;20052;-78
2021/12/12 08:44:10;;;;;;;266.40;52.78;;;7.80;99.90;;;;;;5052183;28;20029;-78
2021/12/12 08:46:39;;;;;;;213.27;49.17;;;7.80;99.90;;;;;;5052423;28;20487;-77
2021/12/12 08:49:05;;;;;;;190.65;46.72;;;7.80;99.90;;;;;;5049413;28;20052;-76
2021/12/12 08:51:35;;;;;;;211.85;47.95;;;7.80;99.90;;;;;;5051412;28;20057;-77
2021/12/12 08:54:13;;;;;;;189.30;48.38;;;7.90;99.90;;;;;;5043475;28;20033;-78
2021/12/12 08:56:46;;;;;;;184.90;45.97;;;7.90;99.90;;;;;;5053736;28;20115;-77
2021/12/12 08:59:21;;;;;;;191.63;45.45;;;8.00;99.90;;;;;;5053543;28;20059;-77
2021/12/12 09:01:50;;;;;;;208.73;47.78;;;8.00;99.90;;;;;;5054600;28;20021;-77
2021/12/12 09:04:16;;;;;;;195.98;46.47;;;8.00;99.90;;;;;;5031222;28;20029;-77
2021/12/12 09:07:01;;;;;;;159.35;43.08;;;8.10;99.90;;;;;;5055519;28;20518;-77
2021/12/12 09:09:32;;;;;;;171.98;45.90;;;8.10;99.90;;;;;;5053182;28;20049;-78
2021/12/12 09:12:06;;;;;;;243.40;52.10;;;8.10;99.90;;;;;;5055618;28;20514;-78
2021/12/12 09:14:53;;;;;;;166.43;45.00;;;8.10;99.90;;;;;;5050907;28;20029;-78
2021/12/12 09:17:28;;;;;;;222.80;48.33;;;8.10;99.90;;;;;;5055797;28;20021;-78
2021/12/12 09:20:22;;;;;;;175.52;46.15;;;8.20;99.90;;;;;;5049349;28;20067;-77
2021/12/12 09:23:01;;;;;;;162.88;45.28;;;8.20;99.90;;;;;;5054881;28;20371;-78
2021/12/12 09:25:37;;;;;;;224.60;50.20;;;8.20;99.90;;;;;;5053388;28;20024;-77
2021/12/12 09:28:26;;;;;;;167.45;45.90;;;8.30;99.90;;;;;;5053413;28;20032;-77
2021/12/12 09:30:52;;;;;;;175.90;46.13;;;8.30;99.90;;;;;;5048330;28;20092;-77
2021/12/12 09:33:29;;;;;;;218.98;50.55;;;8.40;99.90;;;;;;5054962;28;20025;-78
2021/12/12 09:36:07;;;;;;;165.73;45.10;;;8.30;99.90;;;;;;5053902;28;20059;-78
2021/12/12 09:38:51;;;;;;;188.10;45.67;;;8.30;99.90;;;;;;5053352;28;20025;-78
2021/12/12 09:41:42;;;;;;;168.77;44.58;;;8.30;99.90;;;;;;5054723;28;20025;-77
2021/12/12 09:45:11;;;;;;;157.93;41.95;;;8.40;99.90;;;;;;5046498;28;20025;-78
2021/12/12 09:48:15;;;;;;;146.43;40.33;;;8.40;99.90;;;;;;5002951;28;20374;-77
2021/12/12 09:53:52;;;;;;;191.18;45.33;;;8.40;99.90;;;;;;5004040;28;20057;-76
2021/12/12 09:56:56;;;;;;;187.27;45.45;;;8.50;99.90;;;;;;4988590;28;20060;-76
2021/12/12 09:59:41;;;;;;;170.75;46.03;;;8.50;99.90;;;;;;5010165;28;20030;-77
2021/12/12 10:02:15;;;;;;;219.50;47.40;;;8.50;99.90;;;;;;5006944;28;20073;-78
2021/12/12 10:05:08;;;;;;;225.45;49.83;;;8.50;99.90;;;;;;4994517;28;20034;-77
2021/12/12 10:08:01;;;;;;;190.60;48.70;;;8.60;99.90;;;;;;4994559;28;20056;-77
2021/12/12 10:10:37;;;;;;;225.70;49.38;;;8.60;99.90;;;;;;5010765;28;20022;-77
2021/12/12 10:13:11;;;;;;;190.07;47.38;;;8.60;99.90;;;;;;5002538;28;20451;-79
2021/12/12 10:15:47;;;;;;;134.10;40.72;;;8.60;99.90;;;;;;5010314;28;20121;-80
2021/12/12 10:18:37;;;;;;;198.50;44.33;;;8.70;99.90;;;;;;5012669;28;20495;-80
2021/12/12 10:21:12;;;;;;;126.35;37.85;;;8.70;99.90;;;;;;4995995;28;20523;-79
2021/12/12 10:23:59;;;;;;;163.93;45.20;;;8.70;99.90;;;;;;5016365;28;20091;-79
2021/12/12 10:26:42;;;;;;;148.40;44.67;;;8.80;99.90;;;;;;5054427;28;20043;-79
2021/12/12 10:29:10;;;;;;;136.80;43.90;;;8.80;99.90;;;;;;5054545;28;20108;-79
2021/12/12 10:31:46;;;;;;;117.85;41.92;;;8.80;99.90;;;;;;5051413;28;20443;-78
2021/12/12 10:34:20;;;;;;;123.53;37.03;;;8.80;99.90;;;;;;5052314;28;20530;-77
2021/12/12 10:36:55;;;;;;;102.85;34.45;;;8.80;99.90;;;;;;5053344;28;20021;-78
2021/12/12 10:39:37;;;;;;;112.07;36.15;;;8.80;99.90;;;;;;5053334;28;20032;-78
2021/12/12 10:42:12;;;;;;;73.50;28.55;;;8.80;99.90;;;;;;5053407;28;20037;-77
2021/12/12 10:44:46;;;;;;;84.45;32.63;;;8.80;99.90;;;;;;5053760;28;20025;-82
2021/12/12 10:47:24;;;;;;;106.07;36.53;;;8.90;99.90;;;;;;5054022;28;20036;-78
2021/12/12 10:50:13;;;;;;;107.82;44.05;;;8.80;99.90;;;;;;5032399;28;20038;-78
2021/12/12 10:52:49;;;;;;;89.75;33.63;;;8.90;99.90;;;;;;5034129;28;20472;-79
2021/12/12 10:55:30;;;;;;;103.63;35.08;;;8.90;99.90;;;;;;5034203;28;20029;-80
2021/12/12 10:58:26;;;;;;;86.25;31.70;;;8.90;99.90;;;;;;5033719;28;20407;-78
2021/12/12 11:01:02;;;;;;;76.82;28.92;;;9.00;99.90;;;;;;5032928;28;20044;-77
2021/12/12 11:03:44;;;;;;;62.35;27.63;;;9.00;99.90;;;;;;5032976;28;20121;-77
2021/12/12 11:06:23;;;;;;;74.40;29.25;;;9.00;99.90;;;;;;5032868;28;20037;-80
2021/12/12 11:09:11;;;;;;;76.95;29.42;;;9.00;99.90;;;;;;5033003;28;20044;-78
2021/12/12 11:11:45;;;;;;;53.72;24.48;;;9.00;99.90;;;;;;5014561;28;20100;-77
2021/12/12 11:14:21;;;;;;;57.13;29.33;;;9.00;99.90;;;;;;5009892;28;20506;-77
2021/12/12 11:16:53;;;;;;;49.50;23.80;;;9.00;99.90;;;;;;5009064;28;20034;-77
2021/12/12 11:19:34;;;;;;;46.40;24.08;;;9.10;99.90;;;;;;5009687;28;20662;-77
2021/12/12 11:22:23;;;;;;;56.95;25.63;;;9.10;99.90;;;;;;5009706;28;20038;-78
2021/12/12 11:24:57;;;;;;;53.60;23.55;;;9.10;99.90;;;;;;4998695;28;20121;-78
2021/12/12 11:27:33;;;;;;;59.13;26.25;;;9.20;99.90;;;;;;5009481;28;20596;-78
2021/12/12 11:30:18;;;;;;;55.03;26.00;;;9.20;99.90;;;;;;5009863;28;20042;-78
2021/12/12 11:32:44;;;;;;;62.58;27.85;;;9.20;99.90;;;;;;5012651;28;20031;-78
2021/12/12 11:35:12;;;;;;;79.47;29.27;;;9.20;99.90;;;;;;5010081;28;20026;-78
2021/12/12 11:37:58;;;;;;;72.30;28.30;;;9.20;99.90;;;;;;5004899;28;20121;-78
2021/12/12 11:41:10;;;;;;;98.28;30.42;;;9.30;99.90;;;;;;5005843;28;20030;-78
2021/12/12 11:43:41;;;;;;;69.57;28.67;;;9.30;99.90;;;;;;4894756;29;20096;-78
2021/12/12 11:46:18;;;;;;;70.90;28.83;;;9.20;99.90;;;;;;4894568;29;20056;-78
2021/12/12 11:48:52;;;;;;;93.15;34.65;;;9.30;99.90;;;;;;4923318;29;20043;-77
2021/12/12 11:51:22;;;;;;;79.13;29.30;;;9.30;99.90;;;;;;4951544;29;20054;-78
2021/12/12 11:54:08;;;;;;;79.68;30.10;;;9.30;99.90;;;;;;4952048;29;20066;-77
2021/12/12 11:56:45;;;;;;;87.53;30.77;;;9.30;99.90;;;;;;4949911;29;20040;-77
2021/12/12 11:59:16;;;;;;;94.22;33.30;;;9.30;99.90;;;;;;4949289;28;20030;-78
2021/12/12 12:01:49;;;;;;;80.13;29.87;;;9.40;99.90;;;;;;4953739;28;20043;-78
2021/12/12 12:04:37;;;;;;;67.97;27.77;;;9.40;99.90;;;;;;4960099;28;20287;-80
2021/12/12 12:07:23;;;;;;;81.95;31.48;;;9.50;99.90;;;;;;4949717;28;20051;-78
2021/12/12 12:09:55;;;;;;;78.97;31.85;;;9.50;99.90;;;;;;4950560;28;20537;-78
2021/12/12 12:12:55;;;;;;;65.18;28.40;;;9.50;99.90;;;;;;4955210;28;20489;-78
2021/12/12 12:15:38;;;;;;;78.40;31.98;;;9.60;99.90;;;;;;4952700;28;20490;-79
2021/12/12 12:18:31;;;;;;;71.35;28.90;;;9.60;99.90;;;;;;4954795;28;20110;-78
2021/12/12 12:21:19;;;;;;;85.25;31.58;;;9.60;99.90;;;;;;5029121;28;20029;-79
2021/12/12 12:24:15;;;;;;;75.78;30.77;;;9.60;99.90;;;;;;5045989;28;20045;-79
2021/12/12 12:27:02;;;;;;;100.05;31.73;;;9.60;99.90;;;;;;5049779;28;20033;-77
2021/12/12 12:29:27;;;;;;;104.03;32.63;;;9.60;99.90;;;;;;5050012;28;20116;-80
2021/12/12 12:32:31;;;;;;;92.15;30.33;;;9.70;99.90;;;;;;5045207;28;20101;-79
2021/12/12 12:35:34;;;;;;;72.13;29.50;;;9.60;99.90;;;;;;5060292;28;20017;-78
2021/12/12 12:38:21;;;;;;;84.50;30.20;;;9.60;99.90;;;;;;5046402;28;20029;-76
2021/12/12 12:41:05;;;;;;;86.15;29.52;;;9.70;99.90;;;;;;5048250;28;20132;-78
2021/12/12 12:44:08;;;;;;;82.95;29.63;;;9.70;99.90;;;;;;5041803;28;20029;-79
2021/12/12 12:47:08;;;;;;;92.40;30.75;;;9.70;99.90;;;;;;5045930;28;20510;-79
2021/12/12 12:50:10;;;;;;;65.13;26.63;;;9.70;99.90;;;;;;5039173;28;20037;-77
2021/12/12 12:52:54;;;;;;;;;;;9.70;99.90;;;;;;5036888;28;20037;-79
2021/12/12 12:55:26;;;;;;;67.97;25.75;;;9.70;99.90;;;;;;5036254;28;19964;-79
2021/12/12 12:57:55;;;;;;;84.90;28.70;;;9.70;99.90;;;;;;5051844;28;20049;-77
2021/12/12 13:00:23;;;;;;;92.68;35.38;;;9.70;99.90;;;;;;5054160;28;20025;-77
2021/12/12 13:03:04;;;;;;;83.57;29.25;;;9.80;99.90;;;;;;5036178;28;20549;-78
2021/12/12 13:05:48;;;;;;;78.28;28.67;;;9.70;99.90;;;;;;5036135;28;20103;-78
2021/12/12 13:08:47;;;;;;;110.53;34.97;;;9.70;99.90;;;;;;5054672;28;20041;-78
2021/12/12 13:11:32;;;;;;;92.55;34.03;;;9.80;99.90;;;;;;5054720;28;20021;-78
2021/12/12 13:14:06;;;;;;;89.75;30.90;;;9.80;99.90;;;;;;5034625;28;20083;-76
2021/12/12 13:16:38;;;;;;;95.97;42.15;;;9.80;99.90;;;;;;5035836;28;20029;-77
2021/12/12 13:19:10;;;;;;;105.28;55.78;;;9.80;99.90;;;;;;5037971;28;20088;-76
2021/12/12 13:22:02;;;;;;;105.55;38.13;;;9.80;99.90;;;;;;5052790;28;20483;-76
2021/12/12 13:25:07;;;;;;;105.82;40.15;;;9.90;99.90;;;;;;5034435;28;20124;-76
2021/12/12 13:31:02;;;;;;;123.70;51.92;;;9.90;99.90;;;;;;5053244;28;20068;-76
2021/12/12 13:33:40;;;;;;;86.03;32.53;;;9.90;99.90;;;;;;5053439;28;20029;-78
2021/12/12 13:36:14;;;;;;;95.22;33.40;;;9.90;99.90;;;;;;5053657;28;20045;-76